Time;durP1;ratioP1;P1;durP2;ratioP2;P2;SDS_P1;SDS_P2;PMS_P1;PMS_P2;Temp;Humidity;BMP_temperature;BMP_pressure;BME280_temperature;BME280_humidity;BME280_pressure;Samples;Min_cycle;Max_cycle;Signal;HPM_P1;HPM_P2
2024/01/22 00:01:36;;;;;;;10.83;5.83;;;6.80;99.90;;;;;;5095562;28;20052;-80
2024/01/22 00:04:02;;;;;;;11.47;6.00;;;6.80;99.90;;;;;;5096070;28;20067;-80
2024/01/22 00:06:27;;;;;;;11.93;6.33;;;6.90;99.90;;;;;;5095814;28;20114;-80
2024/01/22 00:08:53;;;;;;;13.73;7.07;;;6.90;99.90;;;;;;5095809;28;20047;-79
2024/01/22 00:11:19;;;;;;;12.97;5.50;;;6.90;99.90;;;;;;5096176;28;20042;-80
2024/01/22 00:13:44;;;;;;;12.30;6.90;;;6.90;99.90;;;;;;5096169;28;20055;-80
2024/01/22 00:16:11;;;;;;;13.30;6.23;;;6.90;99.90;;;;;;5096000;28;20127;-80
2024/01/22 00:18:37;;;;;;;11.75;6.03;;;7.00;99.90;;;;;;5096078;28;20055;-81
2024/01/22 00:21:03;;;;;;;15.23;5.90;;;7.00;99.90;;;;;;5095855;28;20044;-80
2024/01/22 00:23:29;;;;;;;10.67;5.50;;;7.00;99.90;;;;;;5094812;28;20547;-80
2024/01/22 00:25:54;;;;;;;11.20;5.70;;;7.00;99.90;;;;;;5093142;28;20036;-80
2024/01/22 00:28:20;;;;;;;10.60;5.40;;;7.00;99.90;;;;;;5096098;28;20048;-81
2024/01/22 00:30:46;;;;;;;11.20;5.87;;;7.00;99.90;;;;;;5095828;28;20556;-80
2024/01/22 00:33:11;;;;;;;10.47;5.10;;;7.10;99.90;;;;;;5094496;28;20048;-80
2024/01/22 00:35:37;;;;;;;12.73;5.70;;;7.10;99.90;;;;;;5095994;28;20044;-80
2024/01/22 00:38:03;;;;;;;12.33;5.83;;;7.20;99.90;;;;;;5095517;28;20486;-81
2024/01/22 00:40:28;;;;;;;13.93;5.70;;;7.20;99.90;;;;;;5095834;28;20044;-81
2024/01/22 00:42:54;;;;;;;13.57;6.03;;;7.20;99.90;;;;;;5095488;28;20047;-81
2024/01/22 00:45:20;;;;;;;13.27;5.30;;;7.20;99.90;;;;;;5095428;28;20043;-81
2024/01/22 00:47:46;;;;;;;11.07;5.77;;;7.20;99.90;;;;;;5095483;28;20056;-80
2024/01/22 00:50:11;;;;;;;11.93;5.50;;;7.20;99.90;;;;;;5095237;28;20044;-81
2024/01/22 00:52:37;;;;;;;10.27;5.43;;;7.30;99.90;;;;;;5095346;28;20039;-81
2024/01/22 00:55:03;;;;;;;9.73;5.77;;;7.20;99.90;;;;;;5094089;28;20052;-80
2024/01/22 00:57:29;;;;;;;11.10;5.87;;;7.30;99.90;;;;;;5095406;28;20040;-80
2024/01/22 00:59:54;;;;;;;9.67;5.80;;;7.30;99.90;;;;;;5095191;28;20782;-80
2024/01/22 01:02:20;;;;;;;10.57;5.60;;;7.30;99.90;;;;;;5094886;28;20048;-81
2024/01/22 01:04:46;;;;;;;9.17;5.13;;;7.30;99.90;;;;;;5095055;28;20099;-81
2024/01/22 01:07:14;;;;;;;10.07;5.67;;;7.30;99.90;;;;;;5094905;28;20135;-81
2024/01/22 01:09:40;;;;;;;11.17;5.80;;;7.30;99.90;;;;;;5094070;28;20048;-80
2024/01/22 01:12:06;;;;;;;12.10;6.37;;;7.30;99.90;;;;;;5094881;28;20808;-81
2024/01/22 01:14:32;;;;;;;10.80;5.90;;;7.30;99.90;;;;;;5093975;28;20392;-80
2024/01/22 01:16:58;;;;;;;13.00;5.77;;;7.30;99.90;;;;;;5094753;28;20047;-81
2024/01/22 01:19:24;;;;;;;13.57;6.83;;;7.40;99.90;;;;;;5094880;28;20311;-81
2024/01/22 01:21:50;;;;;;;10.87;5.67;;;7.40;99.90;;;;;;5094877;28;20282;-80
2024/01/22 01:24:16;;;;;;;11.40;6.27;;;7.40;99.90;;;;;;5094566;28;20044;-80
2024/01/22 01:26:42;;;;;;;10.67;6.03;;;7.40;99.90;;;;;;5094704;28;20134;-80
2024/01/22 01:29:09;;;;;;;13.57;6.90;;;7.50;99.90;;;;;;5094570;28;20136;-79
2024/01/22 01:31:35;;;;;;;15.13;6.63;;;7.50;99.90;;;;;;5094965;28;20285;-79
2024/01/22 01:34:01;;;;;;;12.70;6.57;;;7.50;99.90;;;;;;5093214;28;20316;-79
2024/01/22 01:36:26;;;;;;;13.37;6.33;;;7.50;99.90;;;;;;5094128;28;20310;-80
2024/01/22 01:38:52;;;;;;;11.30;5.73;;;7.60;99.90;;;;;;5094517;28;20051;-80
2024/01/22 01:41:18;;;;;;;14.23;6.50;;;7.60;99.90;;;;;;5094255;28;20538;-79
2024/01/22 01:43:43;;;;;;;14.47;5.90;;;7.60;99.90;;;;;;5094433;28;20048;-79
2024/01/22 01:46:09;;;;;;;9.90;5.90;;;7.70;99.90;;;;;;5094070;28;20129;-78
2024/01/22 01:48:35;;;;;;;16.27;5.90;;;7.70;99.90;;;;;;5094565;28;20048;-79
2024/01/22 01:51:02;;;;;;;13.20;5.77;;;7.70;99.90;;;;;;5093815;28;20489;-78
2024/01/22 01:53:28;;;;;;;10.37;5.43;;;7.70;99.90;;;;;;5093275;28;20279;-79
2024/01/22 01:55:54;;;;;;;11.43;6.07;;;7.80;99.90;;;;;;5094372;28;20624;-78
2024/01/22 01:58:21;;;;;;;9.87;6.13;;;7.80;99.90;;;;;;5093899;28;20086;-78
2024/01/22 02:00:51;;;;;;;11.33;5.97;;;7.80;99.90;;;;;;5094120;28;20286;-77
2024/01/22 02:03:17;;;;;;;13.60;6.63;;;7.90;99.90;;;;;;5093974;28;20318;-77
2024/01/22 02:05:43;;;;;;;14.13;6.67;;;7.90;99.90;;;;;;5093919;28;20364;-76
2024/01/22 02:08:08;;;;;;;14.67;6.93;;;7.90;99.90;;;;;;5093786;28;20044;-76
2024/01/22 02:10:34;;;;;;;11.27;5.97;;;7.90;99.90;;;;;;5092812;28;20083;-76
2024/01/22 02:13:03;;;;;;;13.47;6.43;;;7.90;99.90;;;;;;5092578;28;20051;-75
2024/01/22 02:15:29;;;;;;;15.77;6.77;;;7.90;99.90;;;;;;5093979;28;20066;-76
2024/01/22 02:18:02;;;;;;;14.27;6.20;;;7.90;99.90;;;;;;5075583;28;20290;-76
2024/01/22 02:20:28;;;;;;;13.60;6.53;;;8.00;99.90;;;;;;5093982;28;20403;-76
2024/01/22 02:22:54;;;;;;;11.17;6.10;;;8.00;99.90;;;;;;5093721;28;20274;-76
2024/01/22 02:25:20;;;;;;;14.20;6.50;;;8.00;99.90;;;;;;5093361;28;20393;-76
2024/01/22 02:27:45;;;;;;;14.83;6.50;;;8.00;99.90;;;;;;5093725;28;20047;-76
2024/01/22 02:30:12;;;;;;;14.00;6.20;;;8.00;99.90;;;;;;5093064;28;20082;-76
2024/01/22 02:32:37;;;;;;;11.40;5.60;;;8.10;99.90;;;;;;5093286;28;20512;-76
2024/01/22 02:35:04;;;;;;;11.67;6.57;;;8.20;99.90;;;;;;5093391;28;20314;-75
2024/01/22 02:37:29;;;;;;;11.80;6.00;;;8.20;99.90;;;;;;5093559;28;20118;-76
2024/01/22 02:39:55;;;;;;;12.63;6.40;;;8.10;99.90;;;;;;5093736;28;20290;-76
2024/01/22 02:42:21;;;;;;;11.50;6.07;;;8.20;99.90;;;;;;5093261;28;20554;-77
2024/01/22 02:44:47;;;;;;;12.47;4.97;;;8.20;99.90;;;;;;5091681;28;20453;-77
2024/01/22 02:47:12;;;;;;;13.83;6.40;;;8.20;99.90;;;;;;5093219;28;20086;-76
2024/01/22 02:49:38;;;;;;;13.10;6.27;;;8.20;99.90;;;;;;5092748;28;20127;-76
2024/01/22 02:52:04;;;;;;;9.57;5.23;;;8.20;99.90;;;;;;5093675;28;20492;-75
2024/01/22 02:54:30;;;;;;;11.47;6.03;;;8.20;99.90;;;;;;5075511;28;20127;-76
2024/01/22 02:56:56;;;;;;;11.70;5.47;;;8.30;99.90;;;;;;5093280;28;20373;-77
2024/01/22 02:59:21;;;;;;;11.83;5.43;;;8.30;99.90;;;;;;5093111;28;20039;-75
2024/01/22 03:01:47;;;;;;;15.93;5.93;;;8.30;99.90;;;;;;5093373;28;20109;-76
2024/01/22 03:04:13;;;;;;;11.57;5.17;;;8.30;99.90;;;;;;5090342;28;20371;-76
2024/01/22 03:06:38;;;;;;;9.77;5.50;;;8.30;99.90;;;;;;5093366;28;20062;-76
2024/01/22 03:09:05;;;;;;;14.37;5.63;;;8.30;99.90;;;;;;5092979;28;20101;-75
2024/01/22 03:11:31;;;;;;;12.53;5.90;;;8.30;99.90;;;;;;5093104;28;20764;-76
2024/01/22 03:13:57;;;;;;;12.00;5.90;;;8.30;99.90;;;;;;5093221;28;20398;-77
2024/01/22 03:16:23;;;;;;;11.03;6.00;;;8.30;99.90;;;;;;5092965;28;20047;-76
2024/01/22 03:18:49;;;;;;;12.17;5.43;;;8.30;99.90;;;;;;5093094;28;20079;-77
2024/01/22 03:21:15;;;;;;;13.20;6.37;;;8.30;99.90;;;;;;5092897;28;20055;-75
2024/01/22 03:23:43;;;;;;;12.00;5.57;;;8.30;99.90;;;;;;5092761;28;20281;-75
2024/01/22 03:26:17;;;;;;;12.03;6.80;;;8.30;99.90;;;;;;5092935;28;20051;-75
2024/01/22 03:28:42;;;;;;;13.00;6.33;;;8.30;99.90;;;;;;5093074;28;20289;-75
2024/01/22 03:31:18;;;;;;;11.47;6.67;;;8.40;99.90;;;;;;5093189;28;20286;-75
2024/01/22 03:33:44;;;;;;;10.47;5.53;;;8.30;99.90;;;;;;5093205;28;20055;-75
2024/01/22 03:36:09;;;;;;;11.33;5.40;;;8.40;99.90;;;;;;5092595;28;20744;-75
2024/01/22 03:38:35;;;;;;;9.87;5.67;;;8.40;99.90;;;;;;5092915;28;20126;-75
2024/01/22 03:41:01;;;;;;;10.83;5.30;;;8.40;99.90;;;;;;5092990;28;20052;-75
2024/01/22 03:43:27;;;;;;;12.87;6.97;;;8.40;99.90;;;;;;5092595;28;20389;-75
2024/01/22 03:45:52;;;;;;;10.23;5.27;;;8.40;99.90;;;;;;5091672;28;20048;-75
2024/01/22 03:48:18;;;;;;;11.77;5.37;;;8.50;99.90;;;;;;5091447;28;20047;-75
2024/01/22 03:50:44;;;;;;;9.63;5.30;;;8.50;99.90;;;;;;5092621;28;20048;-76
2024/01/22 03:53:09;;;;;;;11.33;6.13;;;8.50;99.90;;;;;;5092748;28;20048;-73
2024/01/22 03:55:35;;;;;;;7.97;4.50;;;8.50;99.90;;;;;;5091609;28;20177;-75
2024/01/22 03:58:01;;;;;;;8.63;4.23;;;8.50;99.90;;;;;;5092735;28;20040;-76
2024/01/22 04:00:26;;;;;;;9.07;4.10;;;8.60;99.90;;;;;;5094179;28;20044;-75
2024/01/22 04:02:52;;;;;;;9.40;4.60;;;8.70;99.90;;;;;;5096367;28;20048;-75
2024/01/22 04:05:18;;;;;;;11.00;4.30;;;8.70;99.90;;;;;;5095960;28;20060;-75
2024/01/22 04:07:43;;;;;;;8.07;4.70;;;8.70;99.90;;;;;;5096194;28;20044;-75
2024/01/22 04:10:09;;;;;;;9.40;3.97;;;8.70;99.90;;;;;;5096288;28;20052;-76
2024/01/22 04:12:36;;;;;;;7.57;4.00;;;8.80;99.90;;;;;;5096062;28;20508;-75
2024/01/22 04:15:02;;;;;;;8.53;4.00;;;8.90;99.90;;;;;;5096197;28;20044;-75
2024/01/22 04:17:28;;;;;;;7.80;3.90;;;8.90;99.90;;;;;;5095065;28;20281;-75
2024/01/22 04:19:54;;;;;;;5.93;3.27;;;8.90;99.90;;;;;;5096152;28;20374;-75
2024/01/22 04:22:19;;;;;;;6.23;3.37;;;9.00;99.90;;;;;;5095948;28;20044;-75
2024/01/22 04:24:45;;;;;;;6.60;3.50;;;9.00;99.90;;;;;;5095660;28;20486;-76
2024/01/22 04:27:11;;;;;;;8.67;3.47;;;8.90;99.90;;;;;;5095915;28;20048;-76
2024/01/22 04:29:36;;;;;;;7.43;4.07;;;9.00;99.90;;;;;;5095695;28;20051;-75
2024/01/22 04:32:02;;;;;;;6.73;3.57;;;9.10;99.90;;;;;;5095882;28;20145;-76
2024/01/22 04:34:28;;;;;;;5.23;3.37;;;9.10;99.90;;;;;;5095610;28;20055;-75
2024/01/22 04:36:54;;;;;;;8.57;3.10;;;9.20;99.90;;;;;;5095481;28;20282;-75
2024/01/22 04:39:20;;;;;;;7.03;2.80;;;9.20;99.90;;;;;;5094303;28;20048;-75
2024/01/22 04:41:47;;;;;;;6.10;2.83;;;9.30;99.90;;;;;;5095513;28;20048;-76
2024/01/22 04:44:12;;;;;;;5.07;2.50;;;9.30;99.90;;;;;;5095700;28;20059;-76
2024/01/22 04:46:38;;;;;;;4.93;2.20;;;9.40;99.90;;;;;;5095302;28;20298;-75
2024/01/22 04:49:04;;;;;;;5.83;2.60;;;9.40;99.90;;;;;;5095464;28;20055;-76
2024/01/22 04:51:30;;;;;;;5.83;2.40;;;9.50;99.90;;;;;;5095144;28;20546;-76
2024/01/22 04:53:55;;;;;;;6.30;2.70;;;9.50;99.90;;;;;;5095464;28;20282;-76
2024/01/22 04:56:21;;;;;;;5.23;2.50;;;9.60;99.90;;;;;;5095253;28;20414;-75
2024/01/22 04:58:47;;;;;;;4.30;1.97;;;9.60;99.90;;;;;;5095318;28;20085;-76
2024/01/22 05:01:13;;;;;;;3.67;2.03;;;9.60;99.90;;;;;;5095206;28;20478;-76
2024/01/22 05:03:38;;;;;;;4.33;2.47;;;9.60;99.90;;;;;;5094070;28;20059;-76
2024/01/22 05:06:04;;;;;;;4.93;2.03;;;9.60;99.90;;;;;;5095455;28;20067;-76
2024/01/22 05:08:30;;;;;;;6.37;2.27;;;9.60;99.90;;;;;;5094923;28;20063;-76
2024/01/22 05:10:56;;;;;;;8.07;2.30;;;9.60;99.90;;;;;;5094811;28;20710;-76
2024/01/22 05:13:22;;;;;;;5.33;2.10;;;9.60;99.90;;;;;;5094096;28;20046;-75
2024/01/22 05:15:48;;;;;;;4.53;1.90;;;9.70;99.90;;;;;;5095158;28;20040;-76
2024/01/22 05:18:14;;;;;;;3.63;1.90;;;9.70;99.90;;;;;;5094961;28;20286;-76
2024/01/22 05:20:40;;;;;;;4.53;2.13;;;9.70;99.90;;;;;;5094719;28;20048;-76
2024/01/22 05:23:05;;;;;;;4.37;2.10;;;9.70;99.90;;;;;;5094789;28;20131;-76
2024/01/22 05:25:32;;;;;;;3.80;1.83;;;9.70;99.90;;;;;;5094587;28;20373;-75
2024/01/22 05:27:57;;;;;;;4.57;1.90;;;9.70;99.90;;;;;;5094471;28;20490;-75
2024/01/22 05:30:23;;;;;;;4.20;1.90;;;9.70;99.90;;;;;;5094469;28;20331;-75
2024/01/22 05:32:50;;;;;;;6.37;1.90;;;9.70;99.90;;;;;;5094845;28;20044;-75
2024/01/22 05:35:16;;;;;;;4.97;1.73;;;9.70;99.90;;;;;;5094554;28;20274;-76
2024/01/22 05:37:42;;;;;;;4.17;1.97;;;9.70;99.90;;;;;;5094384;28;20300;-75
2024/01/22 05:40:13;;;;;;;4.60;1.73;;;9.80;99.90;;;;;;5094516;28;20130;-76
2024/01/22 05:42:39;;;;;;;5.90;2.30;;;9.80;99.90;;;;;;5094315;28;20051;-75
2024/01/22 05:45:05;;;;;;;9.37;2.23;;;9.80;99.90;;;;;;5094440;28;20294;-75
2024/01/22 05:47:32;;;;;;;7.03;2.40;;;9.80;99.90;;;;;;5094153;28;20048;-75
2024/01/22 05:49:58;;;;;;;8.97;2.60;;;9.80;99.90;;;;;;5094013;28;20810;-75
2024/01/22 05:52:24;;;;;;;9.57;2.53;;;9.70;99.90;;;;;;5094213;28;20314;-74
2024/01/22 05:54:49;;;;;;;7.87;2.80;;;9.60;99.90;;;;;;5094559;28;20044;-75
2024/01/22 05:57:15;;;;;;;8.03;2.63;;;9.60;99.90;;;;;;5092789;28;20512;-75
2024/01/22 05:59:41;;;;;;;6.57;2.97;;;9.50;99.90;;;;;;5093976;28;20050;-74
2024/01/22 06:02:06;;;;;;;7.43;3.07;;;9.50;99.90;;;;;;5094078;28;20043;-74
2024/01/22 06:04:32;;;;;;;5.93;2.50;;;9.50;99.90;;;;;;5093517;28;20040;-73
2024/01/22 06:06:58;;;;;;;8.53;3.17;;;9.50;99.90;;;;;;5094054;28;20052;-73
2024/01/22 06:09:24;;;;;;;10.93;3.70;;;9.40;99.90;;;;;;5093988;28;20047;-74
2024/01/22 06:11:49;;;;;;;8.30;2.67;;;9.40;99.90;;;;;;5093712;28;20524;-73
2024/01/22 06:14:16;;;;;;;8.37;2.97;;;9.40;99.90;;;;;;5094133;28;20097;-73
2024/01/22 06:16:41;;;;;;;10.93;3.50;;;9.50;99.90;;;;;;5093726;28;20047;-73
2024/01/22 06:19:07;;;;;;;7.37;2.37;;;9.50;99.90;;;;;;5093909;28;20905;-73
2024/01/22 06:21:33;;;;;;;13.47;3.23;;;9.50;99.90;;;;;;5093628;28;20079;-73
2024/01/22 06:23:59;;;;;;;10.80;3.27;;;9.50;99.90;;;;;;5092632;28;20052;-73
2024/01/22 06:26:24;;;;;;;8.97;3.53;;;9.60;99.90;;;;;;5093724;28;20039;-74
2024/01/22 06:28:52;;;;;;;9.17;2.87;;;9.60;99.90;;;;;;5093536;28;20416;-74
2024/01/22 06:31:19;;;;;;;11.30;3.37;;;9.50;99.90;;;;;;5093615;28;20048;-74
2024/01/22 06:33:45;;;;;;;11.77;3.00;;;9.40;99.90;;;;;;5093433;28;20286;-73
2024/01/22 06:36:10;;;;;;;11.67;3.30;;;9.40;99.90;;;;;;5093766;28;20339;-73
2024/01/22 06:38:36;;;;;;;16.50;3.90;;;9.40;99.90;;;;;;5093362;28;20044;-73
2024/01/22 06:41:02;;;;;;;12.90;3.60;;;9.40;99.90;;;;;;5093509;28;20062;-73
2024/01/22 06:43:28;;;;;;;15.53;2.93;;;9.40;99.90;;;;;;5093582;28;20549;-74
2024/01/22 06:45:53;;;;;;;15.50;3.43;;;9.40;99.90;;;;;;5092103;28;20381;-73
2024/01/22 06:48:19;;;;;;;18.43;4.13;;;9.40;99.90;;;;;;5093472;28;20090;-74
2024/01/22 06:50:45;;;;;;;24.30;4.10;;;9.30;99.90;;;;;;5093187;28;20126;-73
2024/01/22 06:53:10;;;;;;;22.07;3.83;;;9.30;99.90;;;;;;5092226;28;20040;-73
2024/01/22 06:55:36;;;;;;;20.27;3.87;;;9.30;99.90;;;;;;5093123;28;20052;-73
2024/01/22 06:58:02;;;;;;;24.97;4.17;;;9.30;99.90;;;;;;5093251;28;20126;-73
2024/01/22 07:00:30;;;;;;;24.10;4.73;;;9.30;99.90;;;;;;5093313;28;20052;-73
2024/01/22 07:02:58;;;;;;;25.90;4.57;;;9.30;99.90;;;;;;5093292;28;20497;-73
2024/01/22 07:05:26;;;;;;;29.40;5.20;;;9.30;99.90;;;;;;5093069;28;20793;-73
2024/01/22 07:07:52;;;;;;;25.33;4.33;;;9.20;99.90;;;;;;5092945;28;20301;-74
2024/01/22 07:10:17;;;;;;;26.97;5.07;;;9.30;99.90;;;;;;5093322;28;20274;-74
2024/01/22 07:12:43;;;;;;;40.00;6.23;;;9.30;99.90;;;;;;5093012;28;20398;-73
2024/01/22 07:15:12;;;;;;;38.83;6.17;;;9.30;99.90;;;;;;5093117;28;20082;-74
2024/01/22 07:17:41;;;;;;;31.73;6.47;;;9.30;99.90;;;;;;5092952;28;20127;-73
2024/01/22 07:20:16;;;;;;;39.60;6.27;;;9.30;99.90;;;;;;5091959;28;20435;-74
2024/01/22 07:22:43;;;;;;;39.07;7.17;;;9.30;99.90;;;;;;5092922;28;20357;-74
2024/01/22 07:25:09;;;;;;;41.60;6.97;;;9.30;99.90;;;;;;5092975;28;20301;-74
2024/01/22 07:27:38;;;;;;;38.70;6.90;;;9.30;99.90;;;;;;5092841;28;20628;-74
2024/01/22 07:30:08;;;;;;;44.47;7.83;;;9.30;99.90;;;;;;5092915;28;20803;-74
2024/01/22 07:32:38;;;;;;;37.70;6.90;;;9.30;99.90;;;;;;5091715;28;20282;-72
2024/01/22 07:35:08;;;;;;;37.57;7.73;;;9.30;99.90;;;;;;5094120;28;20336;-75
2024/01/22 07:37:37;;;;;;;48.77;7.90;;;9.30;99.90;;;;;;5096818;28;20281;-75
2024/01/22 07:40:09;;;;;;;51.03;8.77;;;9.30;99.90;;;;;;5096910;28;20355;-75
2024/01/22 07:42:35;;;;;;;50.23;8.50;;;9.30;99.90;;;;;;5095997;28;20624;-72
2024/01/22 07:45:01;;;;;;;53.73;8.43;;;9.30;99.90;;;;;;5096122;28;20309;-74
2024/01/22 07:47:27;;;;;;;67.37;9.57;;;9.30;99.90;;;;;;5096353;28;20845;-74
2024/01/22 07:49:54;;;;;;;52.20;8.90;;;9.30;99.90;;;;;;5096481;28;20609;-73
2024/01/22 07:52:21;;;;;;;55.53;9.43;;;9.20;99.90;;;;;;5096556;28;20381;-74
2024/01/22 07:54:47;;;;;;;57.50;9.57;;;9.20;99.90;;;;;;5096481;28;20422;-74
2024/01/22 07:57:13;;;;;;;58.03;8.63;;;9.20;99.90;;;;;;5096537;28;20343;-74
2024/01/22 07:59:38;;;;;;;61.40;9.00;;;9.20;99.90;;;;;;5096214;28;20281;-74
2024/01/22 08:02:06;;;;;;;71.13;11.83;;;9.20;99.90;;;;;;5096615;28;20051;-74
2024/01/22 08:04:32;;;;;;;75.00;11.07;;;9.20;99.90;;;;;;5096288;28;20048;-74
2024/01/22 08:07:00;;;;;;;77.47;11.27;;;9.20;99.90;;;;;;5094950;28;20655;-74
2024/01/22 08:09:30;;;;;;;80.10;11.30;;;9.20;99.90;;;;;;5095566;28;20282;-73
2024/01/22 08:11:55;;;;;;;65.47;10.23;;;9.20;99.90;;;;;;5096079;28;20285;-73
2024/01/22 08:14:22;;;;;;;57.97;9.87;;;9.20;99.90;;;;;;5096178;28;20387;-73
2024/01/22 08:16:49;;;;;;;65.57;10.00;;;9.20;99.90;;;;;;5095966;28;20074;-72
2024/01/22 08:19:15;;;;;;;69.93;11.47;;;9.20;99.90;;;;;;5096128;28;20365;-73
2024/01/22 08:21:41;;;;;;;59.13;10.87;;;9.20;99.90;;;;;;5095802;28;20308;-72
2024/01/22 08:24:07;;;;;;;64.73;10.67;;;9.20;99.90;;;;;;5095863;28;20270;-72
2024/01/22 08:26:32;;;;;;;59.00;10.93;;;9.20;99.90;;;;;;5095897;28;20036;-72
2024/01/22 08:28:58;;;;;;;53.23;9.63;;;9.10;99.90;;;;;;5095595;28;20145;-73
2024/01/22 08:31:24;;;;;;;59.87;10.23;;;9.10;99.90;;;;;;5095507;28;20044;-73
2024/01/22 08:33:50;;;;;;;66.23;9.83;;;9.10;99.90;;;;;;5095572;28;20043;-72
2024/01/22 08:36:16;;;;;;;70.33;11.60;;;9.10;99.90;;;;;;5094801;28;20047;-72
2024/01/22 08:38:42;;;;;;;65.53;10.93;;;9.00;99.90;;;;;;5095472;28;20282;-72
2024/01/22 08:41:11;;;;;;;73.67;12.00;;;9.00;99.90;;;;;;5094414;28;20438;-72
2024/01/22 08:43:36;;;;;;;74.10;11.63;;;9.00;99.90;;;;;;5094425;28;20056;-73
2024/01/22 08:46:02;;;;;;;82.10;13.23;;;9.00;99.90;;;;;;5094477;28;20309;-73
2024/01/22 08:48:30;;;;;;;69.97;11.73;;;9.00;99.90;;;;;;5095038;28;20044;-73
2024/01/22 08:50:56;;;;;;;83.00;12.23;;;9.00;99.90;;;;;;5094344;28;20541;-73
2024/01/22 08:53:22;;;;;;;81.97;11.77;;;9.00;99.90;;;;;;5095370;28;20316;-72
2024/01/22 08:55:48;;;;;;;94.07;13.03;;;9.00;99.90;;;;;;5095087;28;20756;-72
2024/01/22 08:58:15;;;;;;;81.37;13.37;;;8.90;99.90;;;;;;5095300;28;20044;-72
2024/01/22 09:00:41;;;;;;;76.80;12.17;;;8.90;99.90;;;;;;5095323;28;20055;-72
2024/01/22 09:03:07;;;;;;;76.27;12.47;;;8.90;99.90;;;;;;5094806;28;20779;-72
2024/01/22 09:05:34;;;;;;;88.63;12.70;;;8.80;99.90;;;;;;5094768;28;20341;-73
2024/01/22 09:08:00;;;;;;;78.23;14.00;;;8.80;99.90;;;;;;5095027;28;20413;-73
2024/01/22 09:10:26;;;;;;;80.13;12.47;;;8.80;99.90;;;;;;5095180;28;20274;-73
2024/01/22 09:12:53;;;;;;;76.50;12.67;;;8.80;99.90;;;;;;5094856;28;20294;-73
2024/01/22 09:15:19;;;;;;;66.90;10.40;;;8.90;99.90;;;;;;5094142;28;20293;-73
2024/01/22 09:17:45;;;;;;;68.30;11.83;;;8.90;99.90;;;;;;5094919;28;20278;-73
2024/01/22 09:20:11;;;;;;;69.47;10.63;;;8.90;99.90;;;;;;5095144;28;20048;-73
2024/01/22 09:22:38;;;;;;;67.57;11.10;;;8.90;99.90;;;;;;5094882;28;20316;-74
2024/01/22 09:25:05;;;;;;;70.03;11.33;;;8.90;99.90;;;;;;5094618;28;20040;-73
2024/01/22 09:27:31;;;;;;;61.10;11.20;;;8.90;99.90;;;;;;5094834;28;20332;-73
2024/01/22 09:29:57;;;;;;;69.97;11.67;;;8.90;99.90;;;;;;5094521;28;20597;-74
2024/01/22 09:32:22;;;;;;;64.03;10.10;;;8.80;99.90;;;;;;5094731;28;20044;-74
2024/01/22 09:34:48;;;;;;;81.93;12.33;;;8.90;99.90;;;;;;5094526;28;20056;-72
2024/01/22 09:37:14;;;;;;;71.63;10.63;;;8.80;99.90;;;;;;5094658;28;20044;-74
2024/01/22 09:39:40;;;;;;;69.00;11.07;;;8.80;99.90;;;;;;5093621;28;20286;-74
2024/01/22 09:42:06;;;;;;;70.93;12.20;;;8.80;99.90;;;;;;5094050;28;20085;-73
2024/01/22 09:44:34;;;;;;;67.20;11.10;;;8.80;99.90;;;;;;5094488;28;20043;-74
2024/01/22 09:47:02;;;;;;;50.00;9.67;;;8.80;99.90;;;;;;5092667;28;20795;-74
2024/01/22 09:49:28;;;;;;;62.83;11.23;;;8.80;99.90;;;;;;5093289;28;20775;-74
2024/01/22 09:51:54;;;;;;;59.07;10.53;;;8.80;99.90;;;;;;5094051;28;20308;-73
2024/01/22 09:54:23;;;;;;;54.80;9.90;;;8.80;99.90;;;;;;5094257;28;20147;-74
2024/01/22 09:56:52;;;;;;;56.67;8.83;;;8.80;99.90;;;;;;5094324;28;20052;-74
2024/01/22 09:59:28;;;;;;;60.37;10.83;;;8.80;99.90;;;;;;5093904;28;20278;-74
2024/01/22 10:01:54;;;;;;;54.17;9.40;;;8.80;99.90;;;;;;5093947;28;20647;-73
2024/01/22 10:04:23;;;;;;;54.00;9.53;;;8.80;99.90;;;;;;5094081;28;20048;-74
2024/01/22 10:06:49;;;;;;;38.10;7.47;;;8.80;99.90;;;;;;5092505;28;20317;-75
2024/01/22 10:09:17;;;;;;;42.07;8.33;;;8.80;99.90;;;;;;5093751;28;20289;-74
2024/01/22 10:11:43;;;;;;;50.50;9.40;;;8.80;99.90;;;;;;5093087;28;20286;-74
2024/01/22 10:14:09;;;;;;;39.30;7.60;;;8.70;99.90;;;;;;5093623;28;20274;-73
2024/01/22 10:16:38;;;;;;;37.50;6.57;;;8.80;99.90;;;;;;5093794;28;20332;-74
2024/01/22 10:19:08;;;;;;;39.47;6.70;;;8.80;99.90;;;;;;5093549;28;20093;-73
2024/01/22 10:21:35;;;;;;;39.00;7.57;;;8.80;99.90;;;;;;5093935;28;20270;-74
2024/01/22 10:24:06;;;;;;;36.57;7.20;;;8.80;99.90;;;;;;5093496;28;20307;-73
2024/01/22 10:26:33;;;;;;;36.13;7.53;;;8.80;99.90;;;;;;5093593;28;20298;-74
2024/01/22 10:29:29;;;;;;;32.57;5.83;;;8.80;99.90;;;;;;5093503;28;20335;-73
2024/01/22 10:32:01;;;;;;;41.65;8.40;;;8.80;99.90;;;;;;5076066;28;20315;-73
2024/01/22 10:34:41;;;;;;;38.03;7.10;;;8.80;99.90;;;;;;5093537;28;20193;-74
2024/01/22 10:37:07;;;;;;;40.87;7.17;;;8.70;99.90;;;;;;5093372;28;20270;-74
2024/01/22 10:39:35;;;;;;;42.37;7.80;;;8.80;99.90;;;;;;5093461;28;20287;-74
2024/01/22 10:42:08;;;;;;;36.13;6.27;;;8.80;99.90;;;;;;5092881;28;20768;-74
2024/01/22 10:44:38;;;;;;;34.73;7.47;;;8.80;99.90;;;;;;5093112;28;20785;-74
2024/01/22 10:47:04;;;;;;;47.33;7.97;;;8.80;99.90;;;;;;5093135;28;20304;-74
2024/01/22 10:49:31;;;;;;;43.87;6.80;;;8.80;99.90;;;;;;5093539;28;20278;-74
2024/01/22 10:51:59;;;;;;;48.57;6.90;;;8.80;99.90;;;;;;5092176;28;20290;-73
2024/01/22 10:54:26;;;;;;;32.73;5.77;;;8.80;99.90;;;;;;5093535;28;20278;-74
2024/01/22 10:57:01;;;;;;;36.33;7.53;;;8.90;99.90;;;;;;5093261;28;20369;-74
2024/01/22 10:59:29;;;;;;;33.42;7.32;;;8.90;99.90;;;;;;5093404;28;20282;-74
2024/01/22 11:01:57;;;;;;;36.67;6.97;;;8.90;99.90;;;;;;5093444;28;20048;-75
2024/01/22 11:04:27;;;;;;;40.00;6.70;;;8.90;99.90;;;;;;5092404;28;20317;-74
2024/01/22 11:06:59;;;;;;;40.03;6.63;;;8.90;99.90;;;;;;5092183;28;20377;-74
2024/01/22 11:09:30;;;;;;;35.40;6.87;;;8.90;99.90;;;;;;5093632;28;20278;-74
2024/01/22 11:11:59;;;;;;;30.43;6.20;;;8.90;99.90;;;;;;5097632;28;20705;-74
2024/01/22 11:14:25;;;;;;;43.20;6.83;;;8.90;99.90;;;;;;5097374;28;20317;-74
2024/01/22 11:16:51;;;;;;;25.73;5.77;;;8.90;99.90;;;;;;5096098;28;20701;-74
2024/01/22 11:19:23;;;;;;;35.87;6.67;;;8.90;99.90;;;;;;5097042;28;20048;-74
2024/01/22 11:21:52;;;;;;;38.07;6.83;;;8.90;99.90;;;;;;5097189;28;20474;-74
2024/01/22 11:24:19;;;;;;;30.40;6.33;;;8.90;99.90;;;;;;5097009;28;20293;-74
2024/01/22 11:26:51;;;;;;;33.53;6.40;;;8.90;99.90;;;;;;5097184;28;20296;-75
2024/01/22 11:29:25;;;;;;;33.40;6.77;;;8.90;99.90;;;;;;5096926;28;20286;-74
2024/01/22 11:31:51;;;;;;;30.53;6.37;;;8.90;99.90;;;;;;5097090;28;20343;-75
2024/01/22 11:34:38;;;;;;;35.57;6.47;;;8.90;99.90;;;;;;5096802;28;20274;-74
2024/01/22 11:37:04;;;;;;;31.60;6.43;;;8.90;99.90;;;;;;5096708;28;20044;-74
2024/01/22 11:39:32;;;;;;;38.80;7.17;;;8.80;99.90;;;;;;5096898;28;20289;-75
2024/01/22 11:41:59;;;;;;;38.07;6.80;;;8.90;99.90;;;;;;5097125;28;20052;-75
2024/01/22 11:44:26;;;;;;;32.20;5.57;;;8.90;99.90;;;;;;5096619;28;20331;-75
2024/01/22 11:47:10;;;;;;;33.23;6.63;;;8.90;99.90;;;;;;5096382;28;20755;-75
2024/01/22 11:49:43;;;;;;;36.80;6.93;;;8.90;99.90;;;;;;5096975;28;20282;-75
2024/01/22 11:52:17;;;;;;;33.20;6.53;;;8.90;99.90;;;;;;5096539;28;20671;-74
2024/01/22 11:54:52;;;;;;;32.20;5.77;;;8.90;99.90;;;;;;5096727;28;20285;-75
2024/01/22 11:57:19;;;;;;;29.53;5.53;;;8.90;99.90;;;;;;5096365;28;20286;-74
2024/01/22 12:00:20;;;;;;;27.03;5.47;;;8.90;99.90;;;;;;5096526;28;20051;-75
2024/01/22 12:02:46;;;;;;;24.77;5.57;;;8.90;99.90;;;;;;5014345;28;20289;-75
2024/01/22 12:05:17;;;;;;;31.67;6.97;;;8.90;99.90;;;;;;5079830;28;20760;-74
2024/01/22 12:07:44;;;;;;;38.43;6.83;;;8.90;99.90;;;;;;5096595;28;20285;-75
2024/01/22 12:10:27;;;;;;;35.17;6.63;;;8.90;99.90;;;;;;5096126;28;20285;-75
2024/01/22 12:12:56;;;;;;;29.30;6.63;;;8.90;99.90;;;;;;5095165;28;20287;-75
2024/01/22 12:15:26;;;;;;;30.30;5.10;;;8.90;99.90;;;;;;5095980;28;20289;-75
2024/01/22 12:17:53;;;;;;;27.97;6.47;;;8.90;99.90;;;;;;5096490;28;20310;-75
2024/01/22 12:20:20;;;;;;;28.57;5.30;;;8.90;99.90;;;;;;5095860;28;20274;-75
2024/01/22 12:22:58;;;;;;;25.83;5.40;;;8.90;99.90;;;;;;5096330;28;20274;-75
2024/01/22 12:25:34;;;;;;;27.77;4.67;;;8.80;99.90;;;;;;5095782;28;20294;-75
2024/01/22 12:28:08;;;;;;;34.20;6.80;;;8.90;99.90;;;;;;5096091;28;20334;-75
2024/01/22 12:30:34;;;;;;;25.90;5.43;;;8.80;99.90;;;;;;5096403;28;20346;-76
2024/01/22 12:33:00;;;;;;;28.40;5.57;;;8.80;99.90;;;;;;5095910;28;20541;-76
2024/01/22 12:35:25;;;;;;;28.33;5.30;;;8.90;99.90;;;;;;5095584;28;20047;-76
2024/01/22 12:37:51;;;;;;;31.50;5.67;;;8.80;99.90;;;;;;5095761;28;20047;-76
2024/01/22 12:40:18;;;;;;;27.63;5.13;;;8.90;99.90;;;;;;5095629;28;20055;-75
2024/01/22 12:42:47;;;;;;;28.77;6.63;;;8.90;99.90;;;;;;5095700;28;20044;-75
2024/01/22 12:45:23;;;;;;;27.47;5.93;;;8.80;99.90;;;;;;5095351;28;20302;-75
2024/01/22 12:47:49;;;;;;;30.93;5.97;;;8.80;99.90;;;;;;5095731;28;20270;-76